Time;durP1;ratioP1;P1;durP2;ratioP2;P2;SDS_P1;SDS_P2;PMS_P1;PMS_P2;Temp;Humidity;BMP_temperature;BMP_pressure;BME280_temperature;BME280_humidity;BME280_pressure;Samples;Min_cycle;Max_cycle;Signal;HPM_P1;HPM_P2
2021/08/16 00:02:07;;;;;;;34.13;17.50;;;;;;;30.49;53.07;101171.31;5057155;27;66298;-28
2021/08/16 00:04:39;;;;;;;29.58;16.70;;;;;;;30.53;53.16;101183.38;5045574;28;69976;-28
2021/08/16 00:07:09;;;;;;;24.10;19.83;;;;;;;30.53;55.12;101175.25;5059444;27;65700;-29
2021/08/16 00:09:40;;;;;;;33.22;22.98;;;;;;;30.65;56.62;101187.09;5066392;28;69080;-28
2021/08/16 00:12:10;;;;;;;31.73;23.73;;;;;;;30.67;57.31;101184.16;5065352;27;65904;-28
2021/08/16 00:14:41;;;;;;;37.63;25.05;;;;;;;30.64;58.01;101174.59;5062076;27;70653;-29
2021/08/16 00:17:12;;;;;;;34.20;24.55;;;;;;;30.81;58.16;101201.25;5047564;28;66282;-28
2021/08/16 00:19:43;;;;;;;31.80;24.50;;;;;;;30.71;58.59;101180.84;5065640;28;70226;-28
2021/08/16 00:22:14;;;;;;;33.38;24.75;;;;;;;30.89;58.37;101192.91;5061401;28;65421;-27
2021/08/16 00:24:45;;;;;;;42.85;25.83;;;;;;;30.89;58.90;101190.19;5069257;27;70530;-28
2021/08/16 00:27:17;;;;;;;35.90;26.90;;;;;;;30.91;59.82;101185.41;5066739;28;65864;-27
2021/08/16 00:29:47;;;;;;;54.78;26.85;;;;;;;30.93;59.04;101186.03;5063709;28;69986;-28
2021/08/16 00:32:18;;;;;;;45.13;25.02;;;;;;;30.97;59.81;101194.53;5067732;27;67393;-28
2021/08/16 00:34:48;;;;;;;36.30;25.00;;;;;;;30.95;59.39;101192.03;5065904;27;70483;-29
2021/08/16 00:37:19;;;;;;;32.70;26.42;;;;;;;30.98;59.72;101197.06;5067419;27;65838;-27
2021/08/16 00:39:49;;;;;;;38.38;27.13;;;;;;;30.94;59.96;101176.84;5073651;27;69229;-28
2021/08/16 00:42:21;;;;;;;41.63;26.75;;;;;;;31.05;59.98;101195.13;5074706;27;66828;-27
2021/08/16 00:44:52;;;;;;;28.58;24.13;;;;;;;30.90;59.91;101172.91;5064910;28;69509;-26
2021/08/16 00:47:22;;;;;;;39.10;24.73;;;;;;;31.06;60.65;101199.50;5068116;28;65554;-28
2021/08/16 00:49:54;;;;;;;30.92;25.38;;;;;;;31.12;60.73;101187.84;5071222;27;69387;-28
2021/08/16 00:52:25;;;;;;;43.88;27.35;;;;;;;31.08;60.71;101185.75;5062851;27;65206;-26
2021/08/16 00:54:57;;;;;;;37.63;25.35;;;;;;;31.07;61.12;101184.09;5068958;28;70987;-26
2021/08/16 00:57:32;;;;;;;31.60;25.30;;;;;;;30.76;60.50;101120.63;5048743;28;65283;-27
2021/08/16 01:00:05;;;;;;;30.25;24.23;;;;;;;31.23;60.83;101204.44;5058176;27;70509;-29
2021/08/16 01:02:41;;;;;;;28.05;22.73;;;;;;;31.25;60.96;101197.75;5063236;27;66003;-30
2021/08/16 01:05:14;;;;;;;36.40;24.05;;;;;;;31.16;60.59;101186.34;5066650;27;69872;-27
2021/08/16 01:07:47;;;;;;;30.45;23.00;;;;;;;31.26;61.03;101198.59;5083632;27;66327;-27
2021/08/16 01:10:22;;;;;;;26.70;22.48;;;;;;;31.32;60.92;101203.16;5087455;27;69507;-27
2021/08/16 01:12:53;;;;;;;30.13;22.48;;;;;;;31.33;61.12;101197.53;5066639;27;65332;-28
2021/08/16 01:19:08;;;;;;;27.88;20.23;;;;;;;31.33;60.55;101193.97;5078525;27;66455;-28
2021/08/16 01:21:38;;;;;;;25.15;21.85;;;;;;;31.39;61.08;101217.53;5063814;27;70043;-27
2021/08/16 01:24:08;;;;;;;25.42;20.27;;;;;;;31.40;60.84;101205.66;5052632;27;66058;-28
2021/08/16 01:26:38;;;;;;;22.27;19.98;;;;;;;31.43;60.81;101207.94;5091959;27;69567;-27
2021/08/16 01:29:19;;;;;;;25.02;20.30;;;;;;;31.45;61.05;101211.25;5091948;27;65254;-28
2021/08/16 01:32:03;;;;;;;24.38;18.75;;;;;;;31.53;60.92;101216.41;5086436;27;71002;-28
2021/08/16 01:38:36;;;;;;;19.70;17.52;;;;;;;31.47;60.66;101195.59;5086029;27;70400;-27
2021/08/16 01:41:07;;;;;;;31.23;18.40;;;;;;;31.48;60.23;101191.88;5080838;27;65389;-27
2021/08/16 01:43:37;;;;;;;19.17;16.60;;;;;;;31.56;60.29;101199.72;5083069;27;70051;-27
2021/08/16 01:46:07;;;;;;;28.50;16.45;;;;;;;31.47;60.16;101183.94;5062915;27;66121;-27
2021/08/16 01:49:16;;;;;;;19.13;15.40;;;;;;;31.56;60.14;101213.28;5063831;27;69828;-28
2021/08/16 01:51:48;;;;;;;16.80;15.30;;;;;;;31.63;59.44;101198.88;5078973;27;66025;-28
2021/08/16 01:54:19;;;;;;;15.70;14.10;;;;;;;31.66;59.22;101201.13;5080485;27;69992;-28
2021/08/16 01:56:53;;;;;;;14.82;13.52;;;;;;;31.60;59.70;101195.53;5047380;27;66166;-28
2021/08/16 01:59:24;;;;;;;15.03;13.30;;;;;;;31.63;59.49;101204.28;5049160;27;69738;-28
2021/08/16 02:01:54;;;;;;;12.45;11.32;;;;;;;31.68;58.31;101202.59;5081085;27;66509;-27
2021/08/16 02:04:25;;;;;;;20.58;11.65;;;;;;;31.65;58.39;101192.19;5042882;28;70383;-27
2021/08/16 02:06:57;;;;;;;12.25;10.93;;;;;;;31.75;57.86;101192.50;5060161;28;67098;-29
2021/08/16 02:09:27;;;;;;;12.55;10.32;;;;;;;31.78;57.65;101191.25;5058850;28;69950;-27
2021/08/16 02:11:58;;;;;;;10.50;9.57;;;;;;;31.75;57.44;101172.69;5073615;27;65962;-28
2021/08/16 02:14:30;;;;;;;13.52;9.38;;;;;;;31.86;57.54;101188.25;5045759;28;69890;-28
2021/08/16 02:17:00;;;;;;;9.05;8.25;;;;;;;31.89;56.91;101160.69;5059291;27;66125;-27
2021/08/16 02:19:31;;;;;;;9.73;8.82;;;;;;;31.99;57.33;101171.94;5061757;28;70284;-27
2021/08/16 02:22:02;;;;;;;10.02;9.18;;;;;;;32.01;56.60;101172.53;5063004;28;66788;-27
2021/08/16 02:24:32;;;;;;;9.82;8.50;;;;;;;32.08;56.39;101174.38;5058048;28;69144;-28
2021/08/16 02:27:03;;;;;;;11.05;8.23;;;;;;;32.07;56.81;101173.53;5065689;28;66226;-27
2021/08/16 02:29:35;;;;;;;8.07;7.57;;;;;;;32.10;55.82;101177.69;5062081;27;70671;-28
2021/08/16 02:32:05;;;;;;;7.63;7.00;;;;;;;32.12;55.15;101179.09;5054933;28;65108;-28
2021/08/16 02:34:36;;;;;;;7.90;7.30;;;;;;;32.17;54.80;101173.03;5057764;27;69708;-27
2021/08/16 02:37:07;;;;;;;7.85;7.07;;;;;;;32.13;55.14;101166.41;5046000;28;65326;-27
2021/08/16 02:39:37;;;;;;;10.98;7.82;;;;;;;32.26;54.94;101177.09;5055529;27;69568;-26
2021/08/16 02:42:08;;;;;;;8.35;7.55;;;;;;;32.28;54.66;101169.56;5058353;27;66339;-27
2021/08/16 02:44:39;;;;;;;10.52;8.00;;;;;;;32.28;54.81;101175.84;5057027;27;70039;-29
2021/08/16 02:47:10;;;;;;;8.63;8.02;;;;;;;32.27;54.41;101157.06;5062599;28;66110;-27
2021/08/16 02:49:41;;;;;;;8.55;7.85;;;;;;;32.36;54.31;101161.16;5070999;27;70169;-27
2021/08/16 02:52:11;;;;;;;8.45;7.85;;;;;;;32.40;53.83;101156.09;5063261;27;66652;-26
2021/08/16 02:54:44;;;;;;;12.77;8.40;;;;;;;32.40;54.28;101156.09;5064108;27;70352;-27
2021/08/16 02:57:14;;;;;;;9.07;8.35;;;;;;;32.38;54.71;101139.22;5065709;27;66326;-27
2021/08/16 02:59:45;;;;;;;8.80;8.23;;;;;;;32.47;54.48;101162.34;5063972;27;70334;-27
2021/08/16 03:02:15;;;;;;;13.10;8.50;;;;;;;32.49;54.39;101147.47;5062510;27;65324;-27
2021/08/16 03:04:46;;;;;;;9.25;8.38;;;;;;;32.54;54.28;101160.41;5044613;28;70174;-27
2021/08/16 03:07:17;;;;;;;9.88;9.07;;;;;;;32.56;54.31;101154.72;5069974;28;65580;-27
2021/08/16 03:09:49;;;;;;;9.98;9.27;;;;;;;32.62;54.16;101161.97;5065471;28;70515;-27
2021/08/16 03:12:19;;;;;;;9.13;8.52;;;;;;;32.23;54.28;101079.84;5067980;28;65688;-26
2021/08/16 03:14:51;;;;;;;10.82;7.78;;;;;;;32.68;53.80;101142.88;5065536;28;70538;-28
2021/08/16 03:17:21;;;;;;;12.43;7.82;;;;;;;32.71;53.51;101141.63;5060878;27;65017;-27
2021/08/16 03:19:52;;;;;;;9.18;6.40;;;;;;;32.73;52.93;101139.47;5064841;27;69533;-28
2021/08/16 03:22:22;;;;;;;7.38;6.25;;;;;;;32.78;52.81;101136.09;5061505;27;66578;-27
2021/08/16 03:24:53;;;;;;;6.68;6.15;;;;;;;32.79;53.07;101143.16;5066078;27;69843;-28
2021/08/16 03:27:23;;;;;;;9.27;7.07;;;;;;;32.83;53.69;101138.97;5056405;27;66420;-27
2021/08/16 03:29:54;;;;;;;7.03;6.43;;;;;;;32.82;52.64;101135.41;5061172;27;71382;-27
2021/08/16 03:32:24;;;;;;;5.85;5.45;;;;;;;32.92;52.65;101140.31;5051497;27;66584;-27
2021/08/16 03:34:55;;;;;;;7.30;5.80;;;;;;;32.86;53.33;101127.63;5067874;27;70492;-27
2021/08/16 03:37:31;;;;;;;6.65;6.15;;;;;;;32.94;52.97;101147.16;5057961;28;66173;-27
2021/08/16 03:40:05;;;;;;;5.47;5.07;;;;;;;33.02;51.87;101148.78;5063119;28;70486;-28
2021/08/16 03:42:36;;;;;;;5.80;4.85;;;;;;;33.05;51.63;101142.06;5064602;28;66279;-28
2021/08/16 03:45:12;;;;;;;4.93;4.53;;;;;;;33.09;51.33;101148.69;5062573;28;68920;-27
2021/08/16 03:47:43;;;;;;;6.30;5.80;;;;;;;33.17;51.51;101140.22;5062633;28;66105;-27
2021/08/16 03:50:14;;;;;;;8.15;5.50;;;;;;;33.20;51.58;101131.59;5064679;28;70426;-28
2021/08/16 03:52:45;;;;;;;13.77;6.40;;;;;;;33.24;51.66;101134.69;5050661;28;65351;-26
2021/08/16 03:55:16;;;;;;;11.65;6.25;;;;;;;33.27;51.31;101129.63;5057790;28;69227;-28
2021/08/16 03:57:46;;;;;;;7.75;6.38;;;;;;;33.26;51.01;101118.97;5059097;28;65629;-28
2021/08/16 04:00:17;;;;;;;14.80;6.30;;;;;;;33.28;51.00;101108.69;5063619;28;71285;-28
2021/08/16 04:02:48;;;;;;;7.55;6.82;;;;;;;33.34;51.33;101111.31;5061286;27;65307;-27
2021/08/16 04:05:19;;;;;;;8.23;6.63;;;;;;;33.44;51.79;101120.81;5082608;27;69684;-28
2021/08/16 04:07:50;;;;;;;8.25;7.45;;;;;;;33.54;51.19;101118.38;5060510;27;66291;-29
2021/08/16 04:10:23;;;;;;;10.60;7.90;;;;;;;33.54;51.95;101118.38;5081027;27;69892;-28
2021/08/16 04:12:53;;;;;;;7.50;6.88;;;;;;;33.54;51.07;101112.94;5079127;27;67217;-27
2021/08/16 04:15:23;;;;;;;8.35;6.03;;;;;;;33.31;51.42;101065.56;5045640;27;70456;-28
2021/08/16 04:17:54;;;;;;;8.65;6.50;;;;;;;33.44;51.01;101077.31;5057483;27;66346;-27
2021/08/16 04:20:25;;;;;;;6.43;5.93;;;;;;;33.61;51.23;101094.63;5060876;27;69582;-27
2021/08/16 04:22:55;;;;;;;5.50;5.10;;;;;;;33.58;51.07;101095.09;5083258;27;66489;-27
2021/08/16 04:25:27;;;;;;;7.00;6.35;;;;;;;33.60;51.06;101084.81;5075847;27;69519;-27
2021/08/16 04:27:57;;;;;;;6.20;5.50;;;;;;;33.64;49.99;101090.63;5079922;27;66209;-27
2021/08/16 04:30:28;;;;;;;5.93;5.40;;;;;;;33.65;49.85;101076.75;5085423;27;70662;-27
2021/08/16 04:32:59;;;;;;;6.18;5.78;;;;;;;33.51;50.00;101062.53;5076149;27;65398;-28
2021/08/16 04:35:29;;;;;;;9.93;6.03;;;;;;;33.71;50.16;101083.16;5084067;27;69951;-28
2021/08/16 04:38:00;;;;;;;6.20;5.80;;;;;;;33.69;50.27;101058.09;5081720;27;65558;-28
2021/08/16 04:40:30;;;;;;;6.30;5.90;;;;;;;33.72;49.95;101072.06;5049954;27;70488;-28
2021/08/16 04:43:01;;;;;;;10.68;5.85;;;;;;;33.66;51.04;101062.13;5084407;27;66842;-27
2021/08/16 04:45:31;;;;;;;6.35;5.85;;;;;;;33.68;50.99;101043.66;5079119;27;69158;-27
2021/08/16 04:48:05;;;;;;;14.77;5.97;;;;;;;33.74;50.75;101053.59;5080381;27;65525;-27
2021/08/16 04:50:36;;;;;;;8.63;6.20;;;;;;;33.70;51.44;101051.59;5085332;27;70542;-28
2021/08/16 04:53:07;;;;;;;14.70;6.63;;;;;;;33.70;51.56;101046.97;5057801;27;66023;-27
2021/08/16 04:55:38;;;;;;;19.10;5.85;;;;;;;33.72;50.41;101042.13;5030039;27;70160;-28
2021/08/16 04:58:09;;;;;;;13.10;5.60;;;;;;;33.55;48.99;101028.41;5080991;27;66356;-26
2021/08/16 05:00:39;;;;;;;11.07;5.63;;;;;;;33.54;48.49;101036.78;5080632;27;70048;-28
2021/08/16 05:03:10;;;;;;;11.93;5.90;;;;;;;33.43;47.77;101035.66;5079461;27;65621;-27
2021/08/16 05:05:48;;;;;;;;;;;;;;;33.45;47.30;101038.97;5081000;27;69621;-28
2021/08/16 05:08:18;;;;;;;6.35;5.03;;;;;;;33.27;46.35;101037.19;5080742;27;66748;-27
2021/08/16 05:10:49;;;;;;;13.93;5.03;;;;;;;33.15;46.29;101030.88;5081253;27;69583;-29
2021/08/16 05:13:20;;;;;;;19.33;4.50;;;;;;;32.99;45.44;101002.47;5079988;27;66435;-27
2021/08/16 05:15:50;;;;;;;6.13;4.20;;;;;;;33.02;45.55;101012.06;5065125;27;70660;-28
2021/08/16 05:18:21;;;;;;;13.30;5.10;;;;;;;33.03;45.71;101013.72;5082888;27;65493;-28
2021/08/16 05:20:52;;;;;;;18.20;4.78;;;;;;;32.77;45.61;100980.41;5077981;27;70139;-28
2021/08/16 05:23:22;;;;;;;16.02;4.55;;;;;;;32.90;46.12;101004.69;5059469;27;66032;-28
2021/08/16 05:25:53;;;;;;;27.02;4.60;;;;;;;32.87;46.14;100994.25;5062752;27;68883;-29
2021/08/16 05:28:24;;;;;;;30.08;4.88;;;;;;;32.97;44.39;100987.44;5057428;27;66470;-29
2021/08/16 05:30:56;;;;;;;10.57;4.05;;;;;;;33.03;43.91;100992.81;5044023;27;69573;-28
2021/08/16 05:33:27;;;;;;;5.75;3.42;;;;;;;33.00;43.17;100990.56;5074754;27;66543;-29
2021/08/16 05:35:58;;;;;;;12.77;3.70;;;;;;;32.94;42.89;100984.13;5079062;27;69868;-27
2021/08/16 05:38:29;;;;;;;17.02;3.90;;;;;;;32.85;42.93;100969.22;5076392;27;66071;-28
2021/08/16 05:41:00;;;;;;;5.95;3.67;;;;;;;32.90;42.76;100982.94;5065266;27;69647;-28
2021/08/16 05:43:31;;;;;;;5.55;3.55;;;;;;;32.85;42.81;100971.94;5055551;27;66011;-27
2021/08/16 05:46:02;;;;;;;6.30;3.13;;;;;;;32.83;42.34;100971.34;5054686;27;70268;-26
2021/08/16 05:48:33;;;;;;;3.88;3.50;;;;;;;32.90;42.21;100972.09;5076991;27;66642;-29
2021/08/16 05:51:04;;;;;;;3.22;2.85;;;;;;;32.87;41.89;100972.53;5074904;27;69500;-31
2021/08/16 05:53:36;;;;;;;5.45;3.72;;;;;;;32.89;41.65;100964.97;5077605;27;66360;-28
2021/08/16 05:56:06;;;;;;;3.25;2.95;;;;;;;32.81;41.22;100949.00;5080547;27;68512;-28
2021/08/16 05:58:37;;;;;;;12.07;3.35;;;;;;;32.91;41.23;100953.88;5080146;27;66474;-29
2021/08/16 06:01:08;;;;;;;4.68;2.95;;;;;;;32.87;40.74;100953.50;5059910;27;70260;-30
2021/08/16 06:03:40;;;;;;;7.53;3.03;;;;;;;32.90;40.99;100950.34;5082110;27;65431;-27
2021/08/16 06:06:11;;;;;;;4.10;2.78;;;;;;;32.88;40.34;100949.75;5045942;27;69804;-27
2021/08/16 06:08:42;;;;;;;3.08;2.78;;;;;;;32.85;40.13;100944.78;5058880;27;65262;-26
2021/08/16 06:11:13;;;;;;;4.85;2.53;;;;;;;32.86;40.12;100938.28;5076493;27;70139;-28
2021/08/16 06:13:46;;;;;;;8.93;2.83;;;;;;;32.84;40.11;100940.38;5082313;27;66031;-26
2021/08/16 06:16:18;;;;;;;2.97;2.67;;;;;;;32.85;39.49;100942.06;5075093;27;70021;-27
2021/08/16 06:18:49;;;;;;;3.53;2.90;;;;;;;32.83;39.44;100930.59;5080721;27;65636;-27
2021/08/16 06:21:20;;;;;;;4.97;2.55;;;;;;;32.88;38.97;100928.00;5091136;27;69699;-27
2021/08/16 06:23:51;;;;;;;2.90;2.70;;;;;;;32.84;39.07;100915.09;5088000;27;66299;-26
2021/08/16 06:26:21;;;;;;;4.15;2.20;;;;;;;32.90;38.52;100920.47;5053946;27;69968;-27
2021/08/16 06:28:52;;;;;;;3.13;2.38;;;;;;;32.78;38.96;100903.28;5070916;27;66360;-26
2021/08/16 06:31:23;;;;;;;2.35;2.15;;;;;;;32.86;38.82;100904.84;5065869;27;70197;-28
2021/08/16 06:33:54;;;;;;;2.75;2.53;;;;;;;32.96;38.58;100910.53;5085045;27;67545;-26
2021/08/16 06:36:27;;;;;;;2.40;2.20;;;;;;;32.99;38.59;100915.50;5075281;27;70414;-27
2021/08/16 06:38:58;;;;;;;2.20;2.00;;;;;;;33.03;38.46;100913.19;5067588;27;66480;-27
2021/08/16 06:41:28;;;;;;;2.38;2.17;;;;;;;33.02;38.25;100906.09;5080780;27;70824;-28
2021/08/16 06:44:02;;;;;;;4.22;2.15;;;;;;;33.02;38.35;100900.66;5083974;27;66143;-26
2021/08/16 06:46:32;;;;;;;2.28;2.10;;;;;;;33.09;38.03;100914.94;5087335;27;70392;-27
2021/08/16 06:49:03;;;;;;;2.38;2.25;;;;;;;33.11;37.87;100907.41;5077702;27;65772;-28
2021/08/16 06:51:34;;;;;;;2.13;2.03;;;;;;;33.16;37.67;100910.25;5067326;27;70466;-26
2021/08/16 06:54:04;;;;;;;2.15;2.05;;;;;;;33.23;37.50;100904.69;5062343;27;64312;-27
2021/08/16 06:56:54;;;;;;;3.75;1.80;;;;;;;33.29;37.44;100898.28;5083513;27;69417;-27
2021/08/16 06:59:25;;;;;;;2.38;1.90;;;;;;;33.34;37.18;100893.78;5078818;27;66527;-27
2021/08/16 07:01:56;;;;;;;1.90;1.80;;;;;;;33.33;37.02;100892.16;5065111;27;69954;-26
2021/08/16 07:04:28;;;;;;;2.10;2.00;;;;;;;33.36;37.07;100891.69;5060060;27;66656;-27
2021/08/16 07:06:58;;;;;;;;;;;;;;;33.52;37.04;100884.72;5057884;28;70331;-27
2021/08/16 07:09:29;;;;;;;1.85;1.75;;;;;;;33.46;36.77;100877.50;5055145;27;66105;-27
2021/08/16 07:12:01;;;;;;;6.47;2.00;;;;;;;33.41;36.42;100868.41;5059860;27;69268;-27
2021/08/16 07:14:32;;;;;;;1.70;1.60;;;;;;;33.40;36.24;100869.44;5064908;28;66706;-27
2021/08/16 07:17:03;;;;;;;1.85;1.75;;;;;;;33.33;36.18;100867.69;5065115;27;70279;-27
2021/08/16 07:19:34;;;;;;;2.13;1.92;;;;;;;33.30;36.92;100862.72;5060544;27;66295;-28
2021/08/16 07:22:04;;;;;;;1.90;1.80;;;;;;;33.30;36.69;100862.72;5059217;27;69871;-27
2021/08/16 07:24:35;;;;;;;10.25;2.25;;;;;;;33.33;37.47;100862.25;5065693;27;65601;-28
2021/08/16 07:27:06;;;;;;;2.88;2.60;;;;;;;33.08;37.32;100815.47;5055558;27;69174;-27
2021/08/16 07:29:36;;;;;;;4.45;2.50;;;;;;;33.38;36.92;100854.22;5063991;28;66533;-28
2021/08/16 07:32:07;;;;;;;2.90;2.05;;;;;;;33.36;36.84;100850.88;5060727;27;69705;-28
2021/08/16 07:34:38;;;;;;;2.47;2.25;;;;;;;33.40;36.64;100844.97;5061426;27;66071;-29
2021/08/16 07:37:11;;;;;;;2.47;2.28;;;;;;;33.39;36.21;100846.88;5064450;28;69920;-27
2021/08/16 07:39:42;;;;;;;2.22;2.13;;;;;;;33.37;36.19;100841.66;5058054;27;66600;-28
2021/08/16 07:42:23;;;;;;;4.72;2.10;;;;;;;33.37;36.09;100830.78;5042300;28;70095;-27
2021/08/16 07:44:54;;;;;;;2.65;2.20;;;;;;;33.40;36.04;100817.78;5062717;28;66415;-28
2021/08/16 07:47:26;;;;;;;5.90;1.83;;;;;;;33.43;36.04;100817.31;5060265;27;69520;-32
2021/08/16 07:49:56;;;;;;;3.38;2.15;;;;;;;33.42;35.78;100810.22;5062785;27;65849;-28
2021/08/16 07:52:27;;;;;;;1.73;1.63;;;;;;;33.44;35.77;100810.81;5053838;28;69607;-29
2021/08/16 07:54:58;;;;;;;1.70;1.60;;;;;;;33.45;35.58;100804.31;5050467;28;66352;-29
2021/08/16 07:57:31;;;;;;;4.07;2.03;;;;;;;33.49;36.24;100811.75;5056539;27;70420;-28
2021/08/16 08:00:04;;;;;;;9.65;2.85;;;;;;;33.52;36.22;100810.44;5061167;28;65685;-28
2021/08/16 08:02:47;;;;;;;3.35;1.85;;;;;;;33.53;36.11;100803.97;5055015;27;69320;-27
2021/08/16 08:05:21;;;;;;;1.98;1.83;;;;;;;33.20;36.12;100748.31;5083429;27;66589;-27
2021/08/16 08:07:51;;;;;;;7.13;1.92;;;;;;;33.60;35.94;100810.09;5086306;27;70257;-28
2021/08/16 08:10:23;;;;;;;;;;;;;;;33.69;35.90;100805.94;5082524;27;65882;-28
2021/08/16 08:12:53;;;;;;;9.07;2.53;;;;;;;33.57;35.62;100791.53;5079918;27;70056;-27
2021/08/16 08:15:24;;;;;;;4.07;2.40;;;;;;;33.51;35.82;100787.03;5073769;27;65951;-28
2021/08/16 08:17:55;;;;;;;11.32;2.25;;;;;;;33.55;35.67;100799.13;5079391;27;69964;-28
2021/08/16 08:20:26;;;;;;;10.43;2.13;;;;;;;33.43;35.49;100780.06;5081338;27;66235;-28
2021/08/16 08:22:57;;;;;;;4.57;2.65;;;;;;;33.35;39.11;100762.25;5064236;27;70157;-27
2021/08/16 08:25:27;;;;;;;4.00;2.60;;;;;;;33.65;41.77;100785.69;5061707;27;64620;-27
2021/08/16 08:27:59;;;;;;;3.13;2.83;;;;;;;33.74;43.08;100767.94;5063134;27;70188;-27
2021/08/16 08:30:30;;;;;;;3.40;3.10;;;;;;;34.03;43.90;100773.38;5079651;27;66637;-28
2021/08/16 08:33:01;;;;;;;3.28;2.95;;;;;;;34.19;44.18;100767.16;5066919;27;69585;-28
2021/08/16 08:35:31;;;;;;;3.75;3.45;;;;;;;34.31;44.65;100763.53;5060294;27;66746;-28
2021/08/16 08:38:02;;;;;;;3.05;2.85;;;;;;;34.42;45.07;100759.91;5061311;27;70471;-26
2021/08/16 08:40:33;;;;;;;3.50;3.20;;;;;;;34.41;45.02;100744.66;5077546;27;65385;-28
2021/08/16 08:43:09;;;;;;;5.70;3.25;;;;;;;34.59;45.27;100759.94;5082505;27;69509;-31
2021/08/16 08:45:42;;;;;;;3.40;3.15;;;;;;;34.66;45.18;100755.97;5070918;27;65139;-27
2021/08/16 08:48:17;;;;;;;2.90;2.70;;;;;;;34.68;45.73;100761.97;5039304;27;70622;-29
2021/08/16 08:50:49;;;;;;;3.17;2.97;;;;;;;34.74;45.66;100767.50;5076681;27;65292;-28
2021/08/16 08:53:19;;;;;;;3.58;3.30;;;;;;;34.83;45.97;100774.22;5068509;27;70488;-27
2021/08/16 08:55:51;;;;;;;3.33;3.03;;;;;;;34.86;46.16;100776.44;5074320;27;65326;-31
2021/08/16 08:58:22;;;;;;;3.60;3.30;;;;;;;34.87;45.86;100769.91;5080821;27;70038;-29
2021/08/16 09:00:52;;;;;;;6.35;3.40;;;;;;;34.95;46.36;100769.47;5053709;27;65614;-28
2021/08/16 09:03:23;;;;;;;4.13;3.72;;;;;;;34.97;46.04;100772.78;5059678;27;71575;-27
2021/08/16 09:05:56;;;;;;;3.58;3.28;;;;;;;34.67;47.08;100716.75;5045442;28;66499;-28
2021/08/16 09:08:35;;;;;;;4.60;3.70;;;;;;;35.02;46.66;100763.81;5060061;28;70470;-28
2021/08/16 09:11:10;;;;;;;7.93;4.07;;;;;;;35.06;46.57;100754.13;5054947;27;64978;-28
2021/08/16 09:13:57;;;;;;;3.92;3.53;;;;;;;35.06;47.60;100744.03;5057445;28;69258;-28
2021/08/16 09:16:29;;;;;;;4.18;3.80;;;;;;;35.08;47.14;100750.06;5058570;27;65790;-27
2021/08/16 09:19:12;;;;;;;6.35;3.70;;;;;;;35.11;47.55;100752.28;5048983;28;70253;-27
2021/08/16 09:21:46;;;;;;;10.98;4.22;;;;;;;35.11;48.04;100740.56;5052476;28;65156;-26
2021/08/16 09:24:23;;;;;;;8.32;4.10;;;;;;;35.09;47.92;100742.69;5058998;27;69772;-28
2021/08/16 09:27:03;;;;;;;6.03;4.60;;;;;;;34.84;47.75;100691.38;5059871;27;66324;-29
2021/08/16 09:29:34;;;;;;;7.93;3.97;;;;;;;35.19;47.95;100747.44;5062031;28;70533;-27
2021/08/16 09:32:06;;;;;;;4.47;4.00;;;;;;;35.21;47.97;100758.94;5056999;27;66172;-30
2021/08/16 09:34:52;;;;;;;5.13;4.00;;;;;;;35.27;47.91;100768.81;5063771;28;69242;-28
2021/08/16 09:37:26;;;;;;;9.80;4.70;;;;;;;35.00;48.38;100715.03;5057054;28;66631;-27
2021/08/16 09:40:06;;;;;;;6.07;4.22;;;;;;;35.31;48.36;100769.97;5058221;28;69021;-29
2021/08/16 09:42:51;;;;;;;6.05;4.25;;;;;;;35.30;48.43;100773.78;5065481;27;66019;-29
2021/08/16 09:45:35;;;;;;;5.32;4.05;;;;;;;35.32;48.59;100786.06;5057512;28;70183;-27
2021/08/16 09:48:09;;;;;;;4.30;3.90;;;;;;;35.31;48.44;100776.25;5061678;28;66813;-28
2021/08/16 09:50:40;;;;;;;4.97;4.30;;;;;;;35.35;48.99;100785.59;5054561;27;70329;-29
2021/08/16 09:53:17;;;;;;;4.28;3.35;;;;;;;35.35;48.90;100790.19;5057164;27;66436;-28
2021/08/16 09:55:57;;;;;;;10.40;3.88;;;;;;;35.35;49.28;100787.47;5057509;28;69987;-29
2021/08/16 09:58:30;;;;;;;6.70;4.13;;;;;;;35.36;49.20;100787.22;5041479;28;66470;-28
2021/08/16 10:01:01;;;;;;;10.13;4.30;;;;;;;35.32;50.16;100796.16;5063339;28;70128;-27
2021/08/16 10:03:32;;;;;;;8.80;3.95;;;;;;;35.33;50.04;100797.84;5061835;27;66336;-27
2021/08/16 10:06:07;;;;;;;6.30;4.32;;;;;;;35.19;50.37;100796.53;5080273;27;43753;-28
2021/08/16 10:08:53;;;;;;;5.65;3.75;;;;;;;34.94;50.43;100795.09;5067579;27;66073;-27
2021/08/16 10:11:24;;;;;;;8.45;4.03;;;;;;;34.96;50.58;100812.00;5076671;27;70092;-28
2021/08/16 10:13:56;;;;;;;12.80;3.92;;;;;;;34.84;51.10;100801.19;5043388;27;66495;-29
2021/08/16 10:16:39;;;;;;;15.18;4.85;;;;;;;34.86;51.81;100820.03;5076371;27;69946;-28
2021/08/16 10:19:41;;;;;;;8.38;4.57;;;;;;;34.79;52.04;100819.38;5072134;27;66036;-28
2021/08/16 10:22:12;;;;;;;7.22;4.40;;;;;;;34.81;52.47;100812.59;5065569;27;70141;-28
2021/08/16 10:24:42;;;;;;;6.13;4.95;;;;;;;34.85;52.55;100813.75;5062231;27;66530;-28
2021/08/16 10:27:13;;;;;;;6.00;5.40;;;;;;;34.87;52.89;100816.22;5061136;27;70003;-28
2021/08/16 10:29:48;;;;;;;17.40;6.10;;;;;;;34.92;53.01;100803.50;5080266;27;66689;-28
2021/08/16 10:32:20;;;;;;;10.70;6.93;;;;;;;34.92;53.27;100811.66;5076374;27;69249;-29
2021/08/16 10:34:51;;;;;;;9.65;7.00;;;;;;;34.93;53.32;100817.94;5057117;27;65241;-27
2021/08/16 10:37:22;;;;;;;10.27;7.32;;;;;;;34.86;53.42;100806.41;5050780;27;69702;-27
2021/08/16 10:39:52;;;;;;;9.45;8.18;;;;;;;34.93;53.14;100821.50;5077926;27;66781;-28
2021/08/16 10:42:37;;;;;;;10.88;6.43;;;;;;;34.55;53.45;100775.06;5052279;27;70472;-28
2021/08/16 10:45:09;;;;;;;10.18;6.22;;;;;;;34.91;52.98;100845.47;5049064;27;66258;-28
2021/08/16 10:47:39;;;;;;;11.60;6.70;;;;;;;34.89;52.88;100852.22;5066455;27;69274;-28
2021/08/16 10:50:29;;;;;;;7.18;6.57;;;;;;;34.52;52.91;100797.38;5080082;27;66483;-28
2021/08/16 10:53:05;;;;;;;9.77;5.97;;;;;;;34.41;52.75;100785.50;5062320;27;69763;-28
2021/08/16 10:55:41;;;;;;;7.38;5.60;;;;;;;34.83;52.15;100853.22;5062758;27;66410;-29
2021/08/16 10:58:12;;;;;;;6.60;6.00;;;;;;;34.81;52.56;100860.81;5065827;27;69423;-28
2021/08/16 11:00:43;;;;;;;8.73;6.03;;;;;;;34.82;52.64;100879.63;5042121;27;65144;-26
2021/08/16 11:03:22;;;;;;;6.88;6.13;;;;;;;34.75;52.50;100894.50;5076465;27;70406;-29
2021/08/16 11:05:53;;;;;;;7.03;6.45;;;;;;;34.78;52.40;100899.47;5061106;27;65138;-27
2021/08/16 11:08:31;;;;;;;7.72;6.90;;;;;;;34.78;52.32;100902.19;5067268;27;70380;-28
2021/08/16 11:11:06;;;;;;;7.63;6.93;;;;;;;34.73;52.45;100904.81;5079300;27;66214;-28
2021/08/16 11:13:37;;;;;;;9.27;7.10;;;;;;;34.65;52.69;100901.41;5057284;27;70077;-29
2021/08/16 11:16:08;;;;;;;8.50;7.68;;;;;;;34.70;52.69;100912.41;5060598;27;65644;-28
2021/08/16 11:18:39;;;;;;;8.10;7.50;;;;;;;34.67;53.01;100921.09;5076528;27;70128;-29
2021/08/16 11:21:10;;;;;;;11.80;8.27;;;;;;;34.63;53.37;100943.59;5065894;27;65077;-27
2021/08/16 11:23:42;;;;;;;9.10;8.30;;;;;;;34.64;52.87;100967.88;5063645;27;68400;-27
2021/08/16 11:26:15;;;;;;;8.18;7.47;;;;;;;34.59;52.83;100983.31;5071861;27;65972;-28
2021/08/16 11:28:45;;;;;;;8.40;7.32;;;;;;;34.56;53.27;100995.53;5060203;27;70076;-28
2021/08/16 11:31:16;;;;;;;7.90;7.30;;;;;;;34.57;53.39;101013.50;5045831;27;66683;-26
2021/08/16 11:33:47;;;;;;;9.93;6.88;;;;;;;34.55;53.67;101031.97;5068994;27;70385;-28
2021/08/16 11:36:18;;;;;;;17.20;7.60;;;;;;;34.39;53.27;101028.13;5062084;27;66582;-26
2021/08/16 11:38:57;;;;;;;22.40;6.57;;;;;;;34.51;51.73;101038.97;5082899;27;71225;-28
2021/08/16 11:41:32;;;;;;;14.73;7.38;;;;;;;34.36;50.48;101052.28;5065573;27;65134;-27
2021/08/16 11:44:17;;;;;;;10.27;6.47;;;;;;;33.87;49.80;101029.94;5082197;27;70435;-30
2021/08/16 11:46:47;;;;;;;28.65;7.05;;;;;;;33.92;50.40;101096.19;5085180;27;66369;-27
2021/08/16 11:49:18;;;;;;;19.23;7.10;;;;;;;33.76;49.75;101100.44;5060073;27;70582;-30
2021/08/16 11:51:49;;;;;;;19.25;6.53;;;;;;;33.66;49.67;101132.84;5087225;27;66577;-29
2021/08/16 11:54:39;;;;;;;15.43;6.68;;;;;;;33.47;50.21;101152.97;5075814;27;70219;-29